Time;durP1;ratioP1;P1;durP2;ratioP2;P2;SDS_P1;SDS_P2;PMS_P1;PMS_P2;Temp;Humidity;BMP_temperature;BMP_pressure;BME280_temperature;BME280_humidity;BME280_pressure;Samples;Min_cycle;Max_cycle;Signal;HPM_P1;HPM_P2
2021/06/30 00:01:14;;;;;;;1999.90;999.90;;;13.90;99.90;;;;;;5116824;28;20166;-79
2021/06/30 00:03:39;;;;;;;1999.90;999.90;;;13.90;99.90;;;;;;5115758;28;20171;-77
2021/06/30 00:06:05;;;;;;;1999.90;999.90;;;13.90;99.90;;;;;;5116513;28;20665;-77
2021/06/30 00:08:31;;;;;;;1999.90;999.90;;;13.90;99.90;;;;;;5116263;28;20179;-78
2021/06/30 00:10:58;;;;;;;1999.90;999.90;;;13.90;99.90;;;;;;5098493;28;20266;-77
2021/06/30 00:13:24;;;;;;;1999.90;999.90;;;13.80;99.90;;;;;;5116544;28;20256;-78
2021/06/30 00:15:51;;;;;;;1999.90;999.90;;;13.80;99.90;;;;;;5116014;28;20171;-77
2021/06/30 00:18:18;;;;;;;1999.90;999.90;;;13.70;99.90;;;;;;5115741;28;20163;-78
2021/06/30 00:20:44;;;;;;;1999.90;999.90;;;13.70;99.90;;;;;;5097840;28;20175;-79
2021/06/30 00:23:09;;;;;;;1999.90;999.90;;;13.70;99.90;;;;;;5116740;28;20191;-77
2021/06/30 00:25:36;;;;;;;1999.90;999.90;;;13.70;99.90;;;;;;5098000;28;20179;-77
2021/06/30 00:28:02;;;;;;;1999.90;999.90;;;13.70;99.90;;;;;;5116451;28;20176;-77
2021/06/30 00:30:27;;;;;;;1999.90;999.90;;;13.60;99.90;;;;;;5097149;28;20196;-77
2021/06/30 00:32:53;;;;;;;1999.90;999.90;;;13.60;99.90;;;;;;5107451;28;20274;-78
2021/06/30 00:35:19;;;;;;;1999.90;999.90;;;13.70;99.90;;;;;;5115577;28;20168;-78
2021/06/30 00:37:45;;;;;;;1999.90;999.90;;;13.80;99.90;;;;;;5111344;28;20174;-78
2021/06/30 00:40:12;;;;;;;1999.90;999.90;;;14.00;99.90;;;;;;5107685;28;20176;-79
2021/06/30 00:42:38;;;;;;;1999.90;999.90;;;14.10;99.90;;;;;;5115495;28;20229;-78
2021/06/30 00:45:08;;;;;;;1999.90;999.90;;;14.10;99.90;;;;;;5098249;28;20672;-78
2021/06/30 00:47:35;;;;;;;1999.90;999.90;;;14.20;99.90;;;;;;5103024;28;20183;-79
2021/06/30 00:50:02;;;;;;;1999.90;999.90;;;13.90;99.90;;;;;;5116040;28;20207;-77
2021/06/30 00:52:27;;;;;;;1999.90;999.90;;;14.00;99.90;;;;;;5118247;28;20208;-78
2021/06/30 00:54:53;;;;;;;1999.90;999.90;;;14.00;99.90;;;;;;5113570;28;20202;-79
2021/06/30 00:57:20;;;;;;;1999.90;999.90;;;13.90;99.90;;;;;;5131500;28;20190;-79
2021/06/30 00:59:45;;;;;;;1999.90;999.90;;;14.10;99.90;;;;;;5127602;28;20175;-78
2021/06/30 01:02:11;;;;;;;1999.90;999.90;;;14.10;99.90;;;;;;5131079;28;20685;-79
2021/06/30 01:04:37;;;;;;;1999.90;999.90;;;13.90;99.90;;;;;;5131009;28;20180;-78
2021/06/30 01:07:03;;;;;;;1999.90;999.90;;;13.80;99.90;;;;;;5131620;28;20175;-79
2021/06/30 01:09:30;;;;;;;1999.90;999.90;;;13.80;99.90;;;;;;5131319;28;20172;-78
2021/06/30 01:11:58;;;;;;;1999.90;999.90;;;13.80;99.90;;;;;;5112144;28;20229;-80
2021/06/30 01:14:35;;;;;;;1999.90;999.90;;;13.70;99.90;;;;;;5130645;28;20172;-79
2021/06/30 01:17:05;;;;;;;1999.90;999.90;;;13.70;99.90;;;;;;5135312;28;20171;-78
2021/06/30 01:19:31;;;;;;;1999.90;999.90;;;13.80;99.90;;;;;;5128343;28;20183;-79
2021/06/30 01:21:58;;;;;;;1999.90;999.90;;;13.80;99.90;;;;;;5111242;28;20227;-79
2021/06/30 01:24:24;;;;;;;1999.90;999.90;;;13.90;99.90;;;;;;5113890;28;20183;-79
2021/06/30 01:26:49;;;;;;;1999.90;999.90;;;13.90;99.90;;;;;;5132599;28;20179;-79
2021/06/30 01:29:18;;;;;;;1999.90;999.90;;;13.90;99.90;;;;;;5131226;28;20174;-79
2021/06/30 01:31:44;;;;;;;1999.90;999.90;;;13.90;99.90;;;;;;5132852;28;20207;-79
2021/06/30 01:34:12;;;;;;;1999.90;999.90;;;13.90;99.90;;;;;;5114689;28;20190;-79
2021/06/30 01:36:52;;;;;;;1999.90;999.90;;;13.80;99.90;;;;;;5123917;28;20198;-80
2021/06/30 01:39:20;;;;;;;1999.90;999.90;;;13.90;99.90;;;;;;5114699;28;20197;-79
2021/06/30 01:41:47;;;;;;;1999.90;999.90;;;14.10;99.90;;;;;;5114477;28;20205;-79
2021/06/30 01:44:13;;;;;;;1999.90;999.90;;;14.00;99.90;;;;;;5116752;28;20168;-78
2021/06/30 01:46:39;;;;;;;1999.90;999.90;;;14.00;99.90;;;;;;5110972;28;20195;-80
2021/06/30 01:49:06;;;;;;;1999.90;999.90;;;14.20;99.90;;;;;;5118908;28;20192;-79
2021/06/30 01:51:34;;;;;;;1999.90;999.90;;;14.20;99.90;;;;;;5109253;28;20232;-79
2021/06/30 01:54:01;;;;;;;1999.90;999.90;;;14.20;99.90;;;;;;5112433;28;20172;-80
2021/06/30 01:56:29;;;;;;;1999.90;999.90;;;14.20;99.90;;;;;;5112704;28;20176;-79
2021/06/30 01:59:04;;;;;;;1999.90;999.90;;;14.20;99.90;;;;;;5119438;28;20169;-79
2021/06/30 02:01:30;;;;;;;1999.90;999.90;;;14.30;99.90;;;;;;5119521;28;20364;-78
2021/06/30 02:03:57;;;;;;;1999.90;999.90;;;14.10;99.90;;;;;;5130312;28;20176;-79
2021/06/30 02:06:25;;;;;;;1999.90;999.90;;;14.10;99.90;;;;;;5127957;28;20283;-79
2021/06/30 02:08:56;;;;;;;1999.90;999.90;;;14.20;99.90;;;;;;5128293;28;20155;-78
2021/06/30 02:11:22;;;;;;;1999.90;999.90;;;14.20;99.90;;;;;;5107563;28;20195;-79
2021/06/30 02:13:47;;;;;;;1999.90;999.90;;;14.20;99.90;;;;;;5127325;28;20171;-79
2021/06/30 02:16:13;;;;;;;1999.90;999.90;;;14.30;99.90;;;;;;5126761;28;20205;-79
2021/06/30 02:18:39;;;;;;;1999.90;999.90;;;14.30;99.90;;;;;;5129763;28;20168;-79
2021/06/30 02:21:05;;;;;;;1999.90;999.90;;;14.20;99.90;;;;;;5111159;28;20191;-79
2021/06/30 02:23:30;;;;;;;1999.90;999.90;;;14.20;99.90;;;;;;5131430;28;20192;-79
2021/06/30 02:25:56;;;;;;;1999.90;999.90;;;14.00;99.90;;;;;;5114927;28;20174;-79
2021/06/30 02:28:22;;;;;;;1999.90;999.90;;;14.00;99.90;;;;;;5113474;28;20183;-79
2021/06/30 02:30:48;;;;;;;1999.90;999.90;;;14.10;99.90;;;;;;5132002;28;20195;-79
2021/06/30 02:33:13;;;;;;;1999.90;999.90;;;14.20;99.90;;;;;;5113267;28;20219;-79
2021/06/30 02:35:41;;;;;;;1999.90;999.90;;;14.20;99.90;;;;;;5113564;28;20179;-79
2021/06/30 02:38:07;;;;;;;1999.90;999.90;;;14.20;99.90;;;;;;5130913;28;20163;-80
2021/06/30 02:40:32;;;;;;;1999.90;999.90;;;14.30;99.90;;;;;;5131550;28;20176;-79
2021/06/30 02:42:58;;;;;;;1999.90;999.90;;;14.30;99.90;;;;;;5113473;28;20200;-79
2021/06/30 02:45:24;;;;;;;1999.90;999.90;;;14.20;99.90;;;;;;5131347;28;20186;-78
2021/06/30 02:47:50;;;;;;;1999.90;999.90;;;14.10;99.90;;;;;;5110761;28;20194;-79
2021/06/30 02:50:18;;;;;;;1999.90;999.90;;;14.10;99.90;;;;;;5101536;28;20193;-78
2021/06/30 02:52:44;;;;;;;1999.90;999.90;;;14.00;99.90;;;;;;5107060;28;20268;-79
2021/06/30 02:55:11;;;;;;;1999.90;999.90;;;14.10;99.90;;;;;;5113545;28;20244;-80
2021/06/30 02:57:37;;;;;;;1999.90;999.90;;;14.10;99.90;;;;;;5114998;28;20171;-78
2021/06/30 03:00:21;;;;;;;1999.90;999.90;;;14.10;99.90;;;;;;5121879;28;20182;-80
2021/06/30 03:02:48;;;;;;;1999.90;999.90;;;14.00;99.90;;;;;;5115573;28;20727;-78
2021/06/30 03:05:14;;;;;;;1999.90;999.90;;;13.90;99.90;;;;;;5132966;28;20183;-79
2021/06/30 03:07:40;;;;;;;1999.90;999.90;;;13.90;99.90;;;;;;5133502;28;20167;-79
2021/06/30 03:10:08;;;;;;;1999.90;999.90;;;13.80;99.90;;;;;;5115619;28;20197;-79
2021/06/30 03:12:35;;;;;;;1999.90;999.90;;;13.80;99.90;;;;;;5133568;28;20199;-78
2021/06/30 03:15:01;;;;;;;1999.90;999.90;;;13.80;99.90;;;;;;5133943;28;20171;-79
2021/06/30 03:17:27;;;;;;;1999.90;999.90;;;13.80;99.90;;;;;;5132913;28;20178;-79
2021/06/30 03:19:53;;;;;;;1999.90;999.90;;;13.90;99.90;;;;;;5114751;28;20585;-79
2021/06/30 03:22:20;;;;;;;1999.90;999.90;;;13.90;99.90;;;;;;5131181;28;20681;-80
2021/06/30 03:24:46;;;;;;;1999.90;999.90;;;13.80;99.90;;;;;;5133368;28;20188;-79
2021/06/30 03:27:11;;;;;;;1999.90;999.90;;;13.90;99.90;;;;;;5114610;28;20179;-79
2021/06/30 03:29:37;;;;;;;1999.90;999.90;;;13.80;99.90;;;;;;5132834;28;20172;-79
2021/06/30 03:32:03;;;;;;;1999.90;999.90;;;13.60;99.90;;;;;;5132925;28;20521;-80
2021/06/30 03:34:29;;;;;;;1999.90;999.90;;;13.60;99.90;;;;;;5114329;28;20168;-79
2021/06/30 03:36:54;;;;;;;1999.90;999.90;;;13.50;99.90;;;;;;5133042;28;20174;-80
2021/06/30 03:39:20;;;;;;;1999.90;999.90;;;13.50;99.90;;;;;;5131692;28;20188;-78
2021/06/30 03:41:46;;;;;;;1999.90;999.90;;;13.60;99.90;;;;;;5114562;28;20192;-78
2021/06/30 03:44:11;;;;;;;1999.90;999.90;;;13.50;99.90;;;;;;5132738;28;20525;-78
2021/06/30 03:46:37;;;;;;;1999.90;999.90;;;13.50;99.90;;;;;;5126792;28;20206;-79
2021/06/30 03:49:03;;;;;;;1999.90;999.90;;;13.40;99.90;;;;;;5113730;28;20172;-79
2021/06/30 03:51:28;;;;;;;1999.90;999.90;;;13.40;99.90;;;;;;5123170;28;20260;-79
2021/06/30 03:53:54;;;;;;;1999.90;999.90;;;13.50;99.90;;;;;;5116227;28;20184;-78
2021/06/30 03:56:25;;;;;;;1999.90;999.90;;;13.50;99.90;;;;;;5109164;28;20179;-78
2021/06/30 03:58:55;;;;;;;1999.90;999.90;;;13.40;99.90;;;;;;5114301;28;20220;-79
2021/06/30 04:01:21;;;;;;;1999.90;999.90;;;13.50;99.90;;;;;;5106410;28;20182;-78
2021/06/30 04:03:52;;;;;;;1999.90;999.90;;;13.50;99.90;;;;;;5112388;28;20179;-78
2021/06/30 04:06:17;;;;;;;1999.90;999.90;;;13.40;99.90;;;;;;5121841;28;20182;-79
2021/06/30 04:08:43;;;;;;;1999.90;999.90;;;13.50;99.90;;;;;;5125631;28;20638;-79
2021/06/30 04:11:09;;;;;;;1999.90;999.90;;;13.60;99.90;;;;;;5102798;28;20192;-79
2021/06/30 04:13:34;;;;;;;1999.90;999.90;;;13.60;99.90;;;;;;5113953;28;20175;-79
2021/06/30 04:16:00;;;;;;;1999.90;999.90;;;13.60;99.90;;;;;;5113633;28;20549;-80
2021/06/30 04:18:25;;;;;;;1999.90;999.90;;;13.60;99.90;;;;;;5119327;28;20274;-79
2021/06/30 04:20:51;;;;;;;1999.90;999.90;;;13.60;99.90;;;;;;5132885;28;20241;-79
2021/06/30 04:23:16;;;;;;;1999.90;999.90;;;13.40;99.90;;;;;;5132418;28;20219;-80
2021/06/30 04:25:42;;;;;;;1999.90;999.90;;;13.40;99.90;;;;;;5121867;28;20184;-79
2021/06/30 04:28:08;;;;;;;1999.90;999.90;;;13.40;99.90;;;;;;5123404;28;20182;-79
2021/06/30 04:30:34;;;;;;;1999.90;999.90;;;13.40;99.90;;;;;;5131871;28;20225;-79
2021/06/30 04:33:00;;;;;;;1999.90;999.90;;;13.40;99.90;;;;;;5130568;28;20190;-79
2021/06/30 04:35:28;;;;;;;1999.90;999.90;;;13.30;99.90;;;;;;5121515;28;20175;-79
2021/06/30 04:37:54;;;;;;;1999.90;999.90;;;13.50;99.90;;;;;;5115108;28;20183;-79
2021/06/30 04:40:20;;;;;;;1999.90;999.90;;;13.50;99.90;;;;;;5106666;28;20192;-79
2021/06/30 04:42:45;;;;;;;1999.90;999.90;;;13.50;99.90;;;;;;5100223;28;20220;-78
2021/06/30 04:45:11;;;;;;;1999.90;999.90;;;13.70;99.90;;;;;;5116922;28;20183;-79
2021/06/30 04:47:37;;;;;;;1999.90;999.90;;;13.60;99.90;;;;;;5125669;28;20175;-82
2021/06/30 04:50:03;;;;;;;1999.90;999.90;;;13.60;99.90;;;;;;5097483;28;20253;-82
2021/06/30 04:52:28;;;;;;;1999.90;999.90;;;13.70;99.90;;;;;;5108300;28;20212;-81
2021/06/30 04:54:54;;;;;;;1999.90;999.90;;;13.70;99.90;;;;;;5108551;28;20586;-81
2021/06/30 04:57:20;;;;;;;1999.90;999.90;;;13.80;99.90;;;;;;5117066;28;20176;-82
2021/06/30 04:59:45;;;;;;;1999.90;999.90;;;13.80;99.90;;;;;;5098123;28;20171;-81
2021/06/30 05:02:11;;;;;;;1999.90;999.90;;;13.90;99.90;;;;;;5116159;28;20192;-82
2021/06/30 05:04:37;;;;;;;1999.90;999.90;;;13.90;99.90;;;;;;5116665;28;20289;-81
2021/06/30 05:07:03;;;;;;;1999.90;999.90;;;13.90;99.90;;;;;;5098191;28;20175;-80
2021/06/30 05:09:28;;;;;;;1999.90;999.90;;;14.00;99.90;;;;;;5116121;28;20181;-81
2021/06/30 05:11:54;;;;;;;1999.90;999.90;;;14.10;99.90;;;;;;5116436;28;20203;-81
2021/06/30 05:14:20;;;;;;;1999.90;999.90;;;14.00;99.90;;;;;;5115722;28;20187;-81
2021/06/30 05:16:45;;;;;;;1999.90;999.90;;;14.10;99.90;;;;;;5115802;28;20580;-81
2021/06/30 05:19:11;;;;;;;1999.90;999.90;;;14.10;99.90;;;;;;5120027;28;20176;-82
2021/06/30 05:21:37;;;;;;;1999.90;999.90;;;13.90;99.90;;;;;;5120455;28;20210;-81
2021/06/30 05:24:03;;;;;;;1999.90;999.90;;;14.00;99.90;;;;;;5121230;28;20215;-81
2021/06/30 05:26:28;;;;;;;1999.90;999.90;;;13.80;99.90;;;;;;5117357;28;20176;-82
2021/06/30 05:28:54;;;;;;;1999.90;999.90;;;14.00;99.90;;;;;;5116881;28;20179;-82
2021/06/30 05:31:19;;;;;;;1999.90;999.90;;;14.00;99.90;;;;;;5116216;28;20202;-81
2021/06/30 05:33:45;;;;;;;1999.90;999.90;;;14.20;99.90;;;;;;5116100;28;20167;-81
2021/06/30 05:36:11;;;;;;;1999.90;999.90;;;14.20;99.90;;;;;;5117032;28;20247;-81
2021/06/30 05:38:36;;;;;;;1999.90;999.90;;;14.20;99.90;;;;;;5116356;28;20550;-83
2021/06/30 05:41:02;;;;;;;1999.90;999.90;;;14.40;99.90;;;;;;5098770;28;20179;-81
2021/06/30 05:43:29;;;;;;;1999.90;999.90;;;14.50;99.90;;;;;;5097436;28;20191;-81
2021/06/30 05:45:55;;;;;;;1999.90;999.90;;;14.60;99.90;;;;;;5098934;28;20258;-81
2021/06/30 05:48:21;;;;;;;1999.90;999.90;;;14.70;99.90;;;;;;5115820;28;20604;-81
2021/06/30 05:50:46;;;;;;;1999.90;999.90;;;14.60;99.90;;;;;;5097542;28;20279;-80
2021/06/30 05:53:12;;;;;;;1999.90;999.90;;;14.60;99.90;;;;;;5116510;28;20208;-81
2021/06/30 05:55:38;;;;;;;1999.90;999.90;;;14.70;99.90;;;;;;5097874;28;20654;-81
2021/06/30 05:58:03;;;;;;;1999.90;999.90;;;14.80;99.90;;;;;;5115071;28;20172;-81
2021/06/30 06:00:29;;;;;;;1999.90;999.90;;;15.00;99.90;;;;;;5115313;28;20175;-81
2021/06/30 06:02:55;;;;;;;1999.90;999.90;;;14.80;99.90;;;;;;5109243;28;20276;-81
2021/06/30 06:05:20;;;;;;;1999.90;999.90;;;14.80;99.90;;;;;;5099371;28;20230;-81
2021/06/30 06:07:46;;;;;;;1999.90;999.90;;;14.80;99.90;;;;;;5087772;28;20199;-80
2021/06/30 06:10:12;;;;;;;1999.90;999.90;;;14.90;99.90;;;;;;5118932;28;20620;-81
2021/06/30 06:12:38;;;;;;;1999.90;999.90;;;14.80;99.90;;;;;;5118575;28;20265;-81
2021/06/30 06:15:09;;;;;;;1999.90;999.90;;;14.80;99.90;;;;;;5118663;28;20626;-80
2021/06/30 06:17:35;;;;;;;1999.90;999.90;;;14.80;99.90;;;;;;5118523;28;20194;-81
2021/06/30 06:20:02;;;;;;;1999.90;999.90;;;14.80;99.90;;;;;;5118288;28;20646;-80
2021/06/30 06:22:28;;;;;;;1999.90;999.90;;;14.70;99.90;;;;;;5099688;28;20231;-80
2021/06/30 06:24:53;;;;;;;1999.90;999.90;;;14.60;99.90;;;;;;5111111;28;20191;-80
2021/06/30 06:27:19;;;;;;;1999.90;999.90;;;14.70;99.90;;;;;;5111423;28;20293;-81
2021/06/30 06:29:49;;;;;;;1999.90;999.90;;;14.70;99.90;;;;;;5117539;28;20254;-80
2021/06/30 06:32:14;;;;;;;1999.90;999.90;;;14.70;99.90;;;;;;5117820;28;20586;-82
2021/06/30 06:34:40;;;;;;;1999.90;999.90;;;14.80;99.90;;;;;;5099023;28;20175;-81
2021/06/30 06:37:07;;;;;;;1999.90;999.90;;;14.80;99.90;;;;;;5117581;28;20179;-80
2021/06/30 06:39:33;;;;;;;1999.90;999.90;;;14.90;99.90;;;;;;5117444;28;20188;-81
2021/06/30 06:42:01;;;;;;;1999.90;999.90;;;14.60;99.90;;;;;;5116850;28;20288;-81
2021/06/30 06:44:27;;;;;;;1999.90;999.90;;;14.70;99.90;;;;;;5117668;28;20194;-80
2021/06/30 06:46:52;;;;;;;1999.90;999.90;;;14.90;99.90;;;;;;5117233;28;20646;-81
2021/06/30 06:49:18;;;;;;;1999.90;999.90;;;15.00;99.90;;;;;;5117227;28;20171;-80
2021/06/30 06:51:43;;;;;;;1999.90;999.90;;;15.00;99.90;;;;;;5116660;28;20215;-80
2021/06/30 06:54:10;;;;;;;1999.90;999.90;;;15.00;99.90;;;;;;5119832;22;20658;-81
2021/06/30 06:56:36;;;;;;;1999.90;999.90;;;14.90;99.90;;;;;;5078034;28;20181;-81
2021/06/30 06:59:02;;;;;;;1999.90;999.90;;;14.90;99.90;;;;;;5077502;28;20165;-81
2021/06/30 07:01:28;;;;;;;1999.90;999.90;;;14.80;99.90;;;;;;5077494;28;20185;-81
2021/06/30 07:03:53;;;;;;;1999.90;999.90;;;14.80;99.90;;;;;;5077469;28;20238;-81
2021/06/30 07:06:19;;;;;;;1999.90;999.90;;;14.70;99.90;;;;;;5060163;28;20669;-81
2021/06/30 07:08:45;;;;;;;1999.90;999.90;;;14.60;99.90;;;;;;5059870;28;20177;-81
2021/06/30 07:11:12;;;;;;;1999.90;999.90;;;14.60;99.90;;;;;;5077899;28;20250;-81
2021/06/30 07:13:39;;;;;;;1999.90;999.90;;;14.60;99.90;;;;;;5058917;28;20189;-81
2021/06/30 07:16:05;;;;;;;1999.90;999.90;;;14.50;99.90;;;;;;5077383;28;20165;-81
2021/06/30 07:18:32;;;;;;;1999.90;999.90;;;14.50;99.90;;;;;;5077648;28;20532;-82
2021/06/30 07:20:58;;;;;;;1999.90;999.90;;;14.60;99.90;;;;;;5059928;28;20638;-81
2021/06/30 07:23:24;;;;;;;1999.90;999.90;;;14.60;99.90;;;;;;5077494;28;20203;-81
2021/06/30 07:25:53;;;;;;;1999.90;999.90;;;14.50;99.90;;;;;;5077569;28;20179;-81
2021/06/30 07:28:18;;;;;;;1999.90;999.90;;;14.60;99.90;;;;;;5077264;28;20177;-80
2021/06/30 07:30:44;;;;;;;1999.90;999.90;;;14.50;99.90;;;;;;5076458;28;20796;-81
2021/06/30 07:33:10;;;;;;;1999.90;999.90;;;14.40;99.90;;;;;;5076985;28;20209;-81
2021/06/30 07:35:35;;;;;;;1999.90;999.90;;;14.50;99.90;;;;;;5076520;28;20578;-81
2021/06/30 07:38:02;;;;;;;1999.90;999.90;;;14.50;99.90;;;;;;5059196;28;20199;-81
2021/06/30 07:40:28;;;;;;;1999.90;999.90;;;14.70;99.90;;;;;;5059170;28;20181;-81
2021/06/30 07:42:54;;;;;;;1999.90;999.90;;;14.70;99.90;;;;;;5076517;28;20632;-79
2021/06/30 07:45:20;;;;;;;1999.90;999.90;;;14.50;99.90;;;;;;5076509;28;20188;-80
2021/06/30 07:47:45;;;;;;;1999.90;999.90;;;14.50;99.90;;;;;;5076334;28;20185;-81
2021/06/30 07:50:12;;;;;;;1999.90;999.90;;;14.60;99.90;;;;;;5064662;28;20219;-81
2021/06/30 07:52:38;;;;;;;1999.90;999.90;;;14.60;99.90;;;;;;5076411;28;20181;-81
2021/06/30 07:55:04;;;;;;;1999.90;999.90;;;14.60;99.90;;;;;;5073932;28;20209;-80
2021/06/30 07:57:30;;;;;;;1999.90;999.90;;;14.60;99.90;;;;;;5076428;28;20200;-81
2021/06/30 07:59:56;;;;;;;1999.90;999.90;;;14.60;99.90;;;;;;5077561;28;20177;-80
2021/06/30 08:02:22;;;;;;;1999.90;999.90;;;14.60;99.90;;;;;;5076221;28;20192;-80
2021/06/30 08:04:47;;;;;;;1999.90;999.90;;;14.60;99.90;;;;;;5058750;28;20205;-81
2021/06/30 08:07:13;;;;;;;1999.90;999.90;;;14.70;99.90;;;;;;5058300;28;20169;-81
2021/06/30 08:09:39;;;;;;;1999.90;999.90;;;14.70;99.90;;;;;;5058005;28;20181;-79
2021/06/30 08:12:05;;;;;;;1999.90;999.90;;;14.80;99.90;;;;;;5076137;28;20567;-81
2021/06/30 08:14:32;;;;;;;1999.90;999.90;;;15.00;99.90;;;;;;5076296;28;20223;-81
2021/06/30 08:16:58;;;;;;;1999.90;999.90;;;15.10;99.90;;;;;;5076072;28;20177;-81
2021/06/30 08:19:23;;;;;;;1999.90;999.90;;;15.20;99.90;;;;;;5058305;28;20187;-81
2021/06/30 08:21:50;;;;;;;1999.90;999.90;;;15.20;99.90;;;;;;5058446;28;20260;-80
2021/06/30 08:24:16;;;;;;;1999.90;999.90;;;15.40;99.90;;;;;;5075956;28;20200;-81
2021/06/30 08:26:42;;;;;;;1999.90;999.90;;;15.50;99.90;;;;;;5076029;28;20259;-81
2021/06/30 08:29:08;;;;;;;1999.90;999.90;;;15.50;99.90;;;;;;5076493;28;20736;-81
2021/06/30 08:31:33;;;;;;;1999.90;999.90;;;15.60;99.90;;;;;;5076463;28;20209;-81
2021/06/30 08:33:59;;;;;;;1999.90;999.90;;;15.60;99.90;;;;;;5076532;28;20205;-80
2021/06/30 08:36:25;;;;;;;1999.90;999.90;;;15.50;99.90;;;;;;5058394;28;20241;-80
2021/06/30 08:38:51;;;;;;;1999.90;999.90;;;15.40;99.90;;;;;;5075659;28;20264;-80
2021/06/30 08:41:18;;;;;;;1999.90;999.90;;;15.50;99.90;;;;;;5075775;28;20177;-81
2021/06/30 08:43:44;;;;;;;1999.90;999.90;;;15.60;99.90;;;;;;5057863;28;20201;-81
2021/06/30 08:46:10;;;;;;;1999.90;999.90;;;15.80;99.90;;;;;;5075390;28;20575;-81
2021/06/30 08:48:37;;;;;;;1999.90;999.90;;;15.80;99.90;;;;;;5052689;28;20180;-81
2021/06/30 08:51:04;;;;;;;1999.90;999.90;;;15.80;99.90;;;;;;5058060;28;20200;-81
2021/06/30 08:53:31;;;;;;;1999.90;999.90;;;15.90;99.90;;;;;;5075772;28;20231;-80
2021/06/30 08:55:58;;;;;;;1999.90;999.90;;;15.80;99.90;;;;;;5075586;28;20180;-80
2021/06/30 08:58:23;;;;;;;1999.90;999.90;;;15.70;99.90;;;;;;5075686;28;20197;-79
2021/06/30 09:00:50;;;;;;;1999.90;999.90;;;15.90;99.90;;;;;;5073852;28;20212;-78
2021/06/30 09:03:17;;;;;;;1999.90;999.90;;;15.90;99.90;;;;;;5076020;28;20322;-78
2021/06/30 09:08:19;;;;;;;1999.90;999.90;;;16.50;99.90;;;;;;5072541;28;20184;-77
2021/06/30 09:10:45;;;;;;;1999.90;999.90;;;16.70;99.90;;;;;;5071798;28;20251;-77
2021/06/30 09:13:21;;;;;;;1999.90;999.90;;;17.00;99.90;;;;;;5064129;28;20243;-78
2021/06/30 09:15:59;;;;;;;1999.90;999.90;;;17.00;99.90;;;;;;5060041;28;20260;-77
2021/06/30 09:18:45;;;;;;;1999.90;999.90;;;16.90;99.90;;;;;;5059657;28;20192;-78
2021/06/30 09:21:28;;;;;;;1999.90;999.90;;;17.10;99.90;;;;;;5062495;28;20184;-78
2021/06/30 09:23:57;;;;;;;1999.90;999.90;;;17.40;99.90;;;;;;5065581;28;20619;-79
2021/06/30 09:26:23;;;;;;;1999.90;999.90;;;17.60;99.90;;;;;;5053764;28;20202;-78
2021/06/30 09:28:49;;;;;;;1999.90;999.90;;;17.50;99.90;;;;;;5055063;28;20290;-78
2021/06/30 09:31:15;;;;;;;1999.90;999.90;;;17.40;99.90;;;;;;5058986;28;20583;-78
2021/06/30 09:33:48;;;;;;;1999.90;999.90;;;17.70;99.90;;;;;;5058801;28;20250;-78
2021/06/30 09:36:14;;;;;;;1999.90;999.90;;;17.90;99.90;;;;;;5066996;28;20184;-78
2021/06/30 09:38:43;;;;;;;1999.90;999.90;;;18.20;99.90;;;;;;5074475;28;20969;-78
2021/06/30 09:41:26;;;;;;;1999.90;999.90;;;18.10;99.90;;;;;;5055517;28;20193;-79
2021/06/30 09:44:07;;;;;;;1999.90;999.90;;;18.20;99.90;;;;;;5073084;28;20639;-78
2021/06/30 09:46:35;;;;;;;1999.90;999.90;;;18.10;99.90;;;;;;5052329;28;20184;-78
2021/06/30 09:49:06;;;;;;;1999.90;999.90;;;18.10;99.90;;;;;;5072160;28;20264;-78
2021/06/30 09:51:31;;;;;;;1999.90;999.90;;;18.00;99.90;;;;;;5073386;28;20207;-79
2021/06/30 09:54:18;;;;;;;1999.90;999.90;;;18.30;99.90;;;;;;5073064;28;20583;-79
2021/06/30 09:57:02;;;;;;;1999.90;999.90;;;18.40;99.90;;;;;;5052692;28;20214;-78
2021/06/30 09:59:33;;;;;;;1999.90;999.90;;;18.60;99.90;;;;;;5045489;28;20188;-79
2021/06/30 10:02:06;;;;;;;1999.90;999.90;;;18.60;99.90;;;;;;5072413;28;20272;-79
2021/06/30 10:04:38;;;;;;;1999.90;999.90;;;18.70;99.90;;;;;;5073667;28;20216;-79
2021/06/30 10:07:11;;;;;;;1999.90;999.90;;;18.60;99.90;;;;;;5072807;28;20179;-80
2021/06/30 10:09:38;;;;;;;1999.90;999.90;;;18.40;99.90;;;;;;5072135;28;20267;-77
2021/06/30 10:12:08;;;;;;;1999.90;999.90;;;18.40;99.90;;;;;;5056141;28;20236;-80
2021/06/30 10:14:36;;;;;;;1999.90;999.90;;;18.40;99.90;;;;;;5069486;28;20216;-77
2021/06/30 10:17:02;;;;;;;1999.90;999.90;;;18.20;99.90;;;;;;5063670;28;20181;-77
2021/06/30 10:19:28;;;;;;;1999.90;999.90;;;18.10;99.90;;;;;;5073084;28;20207;-78
2021/06/30 10:21:54;;;;;;;1999.90;999.90;;;18.10;99.90;;;;;;5056514;28;20225;-77
2021/06/30 10:24:21;;;;;;;1999.90;999.90;;;18.10;99.90;;;;;;5061158;28;20208;-77
2021/06/30 10:26:48;;;;;;;1999.90;999.90;;;18.30;99.90;;;;;;5046512;28;20180;-78
2021/06/30 10:29:15;;;;;;;1999.90;999.90;;;18.30;99.90;;;;;;5056526;28;20688;-77
2021/06/30 10:31:42;;;;;;;1999.90;999.90;;;18.50;99.90;;;;;;5054577;28;20295;-77
2021/06/30 10:34:13;;;;;;;1999.90;999.90;;;18.60;99.90;;;;;;5059578;28;20287;-77
2021/06/30 10:36:52;;;;;;;1999.90;999.90;;;18.80;99.90;;;;;;5054048;28;20174;-77
2021/06/30 10:39:41;;;;;;;1999.90;999.90;;;;;;;;;;5072753;28;20172;-77
2021/06/30 10:42:37;;;;;;;1999.90;999.90;;;19.50;99.90;;;;;;5053225;28;20677;-78
2021/06/30 10:45:16;;;;;;;1999.90;999.90;;;19.90;99.90;;;;;;5066230;28;20316;-79
2021/06/30 10:47:45;;;;;;;1999.90;999.90;;;19.70;99.90;;;;;;5054457;28;20189;-77
2021/06/30 10:50:22;;;;;;;1999.90;999.90;;;19.50;99.90;;;;;;5070599;28;20658;-77
2021/06/30 10:53:12;;;;;;;1999.90;999.90;;;19.80;99.90;;;;;;5059564;28;20177;-78
2021/06/30 10:55:40;;;;;;;1999.90;999.90;;;19.90;99.90;;;;;;5059388;28;20547;-78
2021/06/30 10:58:15;;;;;;;1999.90;999.90;;;19.70;99.90;;;;;;5055005;28;20185;-78
2021/06/30 11:01:00;;;;;;;1999.90;999.90;;;19.80;99.90;;;;;;5065120;28;20206;-77
2021/06/30 11:03:33;;;;;;;1999.90;999.90;;;19.70;99.90;;;;;;5063779;28;20209;-78
2021/06/30 11:06:15;;;;;;;1999.90;999.90;;;19.70;99.90;;;;;;5067561;28;20189;-77
2021/06/30 11:09:05;;;;;;;1999.90;999.90;;;19.50;99.90;;;;;;5073305;28;20665;-78
2021/06/30 11:11:34;;;;;;;1999.90;999.90;;;19.30;99.90;;;;;;5058275;28;20204;-79
2021/06/30 11:14:07;;;;;;;1999.90;999.90;;;19.40;99.90;;;;;;5075063;28;20287;-78
2021/06/30 11:19:08;;;;;;;1999.90;999.90;;;19.30;99.90;;;;;;5074861;28;20707;-78
2021/06/30 11:22:05;;;;;;;1999.90;999.90;;;19.50;99.90;;;;;;5058176;28;20185;-77
2021/06/30 11:24:33;;;;;;;1999.90;999.90;;;19.70;99.90;;;;;;5056275;28;20295;-79
2021/06/30 11:27:24;;;;;;;1999.90;999.90;;;19.90;99.90;;;;;;5076795;28;20208;-78
2021/06/30 11:29:58;;;;;;;1999.90;999.90;;;19.80;99.90;;;;;;5062376;28;20185;-78
2021/06/30 11:35:20;;;;;;;1999.90;999.90;;;19.40;99.90;;;;;;5075893;28;20222;-77
2021/06/30 11:37:54;;;;;;;1999.90;999.90;;;19.70;99.90;;;;;;5076422;28;20177;-78
2021/06/30 11:42:49;;;;;;;1999.90;999.90;;;19.90;99.90;;;;;;5076214;28;20181;-78
2021/06/30 11:45:23;;;;;;;1999.90;999.90;;;19.70;99.90;;;;;;5076554;28;20227;-78
2021/06/30 11:47:56;;;;;;;1999.90;999.90;;;19.60;99.90;;;;;;5058872;28;20655;-78
2021/06/30 11:50:24;;;;;;;1999.90;999.90;;;19.40;99.90;;;;;;5075564;28;20246;-78
2021/06/30 11:52:51;;;;;;;1999.90;999.90;;;19.50;99.90;;;;;;5057832;28;20172;-77
2021/06/30 11:55:17;;;;;;;1999.90;999.90;;;19.30;99.90;;;;;;5075169;28;20217;-77
2021/06/30 11:57:58;;;;;;;1999.90;999.90;;;19.20;99.90;;;;;;5065573;28;20653;-79
2021/06/30 12:00:27;;;;;;;1999.90;999.90;;;18.90;99.90;;;;;;5073019;28;20187;-78
2021/06/30 12:03:01;;;;;;;1999.90;999.90;;;18.60;99.90;;;;;;5075992;28;20275;-77
2021/06/30 12:05:38;;;;;;;1999.90;999.90;;;18.60;99.90;;;;;;5075774;28;20186;-78
2021/06/30 12:08:07;;;;;;;1999.90;999.90;;;18.70;99.90;;;;;;5076225;28;20184;-77
2021/06/30 12:10:33;;;;;;;1999.90;999.90;;;18.80;99.90;;;;;;5075774;28;20222;-78
2021/06/30 12:13:00;;;;;;;1999.90;999.90;;;18.90;99.90;;;;;;5057978;28;20575;-77